createdAt,value
2023-04-22T00:02:17.236Z,69.20
2023-04-22T00:04:46.523Z,69.30
2023-04-22T00:07:14.494Z,69.30
2023-04-22T00:09:42.019Z,69.30
2023-04-22T00:12:11.497Z,69.30
2023-04-22T00:14:38.647Z,69.30
2023-04-22T00:17:06.741Z,69.30
2023-04-22T00:19:34.420Z,69.30
2023-04-22T00:22:01.230Z,69.30
2023-04-22T00:24:27.870Z,69.30
2023-04-22T00:26:54.528Z,69.30
2023-04-22T00:29:21.212Z,69.30
2023-04-22T00:31:47.933Z,69.40
2023-04-22T00:34:17.646Z,69.30
2023-04-22T00:36:44.587Z,69.40
2023-04-22T00:39:11.401Z,69.40
2023-04-22T00:41:39.680Z,69.40
2023-04-22T00:44:09.955Z,69.40
2023-04-22T00:46:38.053Z,69.40
2023-04-22T00:49:05.688Z,69.40
2023-04-22T00:51:32.737Z,69.40
2023-04-22T00:54:01.799Z,69.40
2023-04-22T00:56:29.777Z,69.40
2023-04-22T00:58:56.903Z,69.40
2023-04-22T01:01:23.689Z,69.40
2023-04-22T01:03:53.181Z,69.40
2023-04-22T01:06:20.341Z,69.50
2023-04-22T01:08:47.740Z,69.60
2023-04-22T01:11:15.003Z,69.70
2023-04-22T01:13:42.014Z,69.70
2023-04-22T01:16:09.936Z,69.80
2023-04-22T01:18:37.221Z,69.80
2023-04-22T01:21:04.265Z,69.80
2023-04-22T01:23:30.976Z,69.70
2023-04-22T01:25:57.644Z,69.70
2023-04-22T01:28:24.944Z,69.70
2023-04-22T01:30:52.374Z,69.80
2023-04-22T01:33:19.073Z,69.80
2023-04-22T01:35:45.741Z,69.80
2023-04-22T01:38:13.248Z,69.70
2023-04-22T01:40:39.903Z,69.90
2023-04-22T01:43:07.148Z,69.90
2023-04-22T01:45:34.070Z,70.00
2023-04-22T01:48:00.901Z,70.10
2023-04-22T01:50:27.842Z,70.10
2023-04-22T01:52:54.567Z,70.20
2023-04-22T01:55:21.171Z,70.20
2023-04-22T01:57:47.860Z,70.20
2023-04-22T02:00:14.668Z,70.20
2023-04-22T02:02:41.426Z,70.30
2023-04-22T02:05:08.968Z,70.30
2023-04-22T02:07:36.398Z,70.40
2023-04-22T02:10:05.469Z,70.40
2023-04-22T02:12:32.452Z,70.50
2023-04-22T02:14:59.386Z,70.50
2023-04-22T02:17:27.041Z,70.50
2023-04-22T02:19:53.768Z,70.60
2023-04-22T02:22:21.301Z,70.70
2023-04-22T02:24:47.946Z,70.70
2023-04-22T02:27:14.553Z,70.80
2023-04-22T02:29:41.924Z,70.80
2023-04-22T02:32:08.775Z,70.70
2023-04-22T02:34:36.543Z,70.80
2023-04-22T02:37:03.217Z,70.80
2023-04-22T02:39:29.915Z,70.70
2023-04-22T02:41:56.591Z,70.70
2023-04-22T02:44:23.274Z,70.80
2023-04-22T02:46:49.934Z,70.80
2023-04-22T02:49:16.581Z,70.90
2023-04-22T02:51:43.190Z,70.90
2023-04-22T02:54:09.950Z,70.90
2023-04-22T02:56:36.592Z,70.90
2023-04-22T02:59:03.265Z,71.00
2023-04-22T03:01:29.931Z,71.00
2023-04-22T03:03:56.958Z,71.00
2023-04-22T03:06:23.739Z,71.00
2023-04-22T03:08:50.858Z,71.10
2023-04-22T03:11:17.464Z,71.20
2023-04-22T03:13:44.101Z,71.20
2023-04-22T03:16:10.823Z,71.20
2023-04-22T03:18:37.424Z,71.20
2023-04-22T03:21:04.335Z,71.20
2023-04-22T03:23:31.094Z,71.20
2023-04-22T03:25:57.765Z,71.10
2023-04-22T03:28:24.363Z,71.20
2023-04-22T03:30:51.001Z,71.10
2023-04-22T03:33:18.232Z,71.10
2023-04-22T03:35:47.365Z,71.10
2023-04-22T03:38:13.986Z,71.10
2023-04-22T03:40:42.318Z,71.10
2023-04-22T03:43:09.010Z,71.00
2023-04-22T03:45:35.693Z,71.10
2023-04-22T03:48:02.387Z,71.20
2023-04-22T03:50:29.151Z,71.20
2023-04-22T03:52:55.883Z,71.20
2023-04-22T03:55:22.494Z,71.20
2023-04-22T03:57:49.140Z,71.20
2023-04-22T04:00:15.929Z,71.20
2023-04-22T04:02:42.932Z,71.30
2023-04-22T04:05:11.291Z,71.30
2023-04-22T04:07:38.205Z,71.30
2023-04-22T04:10:05.328Z,71.40
2023-04-22T04:12:32.008Z,71.40
2023-04-22T04:14:58.665Z,71.50
2023-04-22T04:17:25.966Z,71.60
2023-04-22T04:19:53.263Z,71.60
2023-04-22T04:22:20.271Z,71.60
2023-04-22T04:24:47.347Z,71.50
2023-04-22T04:27:14.304Z,71.50
2023-04-22T04:29:42.137Z,71.50
2023-04-22T04:32:09.869Z,71.50
2023-04-22T04:34:39.574Z,71.50
2023-04-22T04:37:06.449Z,71.50
2023-04-22T04:39:33.559Z,71.40
2023-04-22T04:42:00.470Z,71.40
2023-04-22T04:44:27.426Z,71.30
2023-04-22T04:46:54.751Z,71.30
2023-04-22T04:49:21.628Z,71.30
2023-04-22T04:51:48.269Z,71.30
2023-04-22T04:54:15.186Z,71.30
2023-04-22T04:56:42.116Z,71.20
2023-04-22T04:59:08.919Z,71.10
2023-04-22T05:01:35.705Z,71.10
2023-04-22T05:04:02.499Z,70.90
2023-04-22T05:06:29.496Z,70.90
2023-04-22T05:08:56.110Z,70.80
2023-04-22T05:11:22.758Z,70.70
2023-04-22T05:13:49.342Z,70.70
2023-04-22T05:16:16.175Z,70.70
2023-04-22T05:18:42.783Z,70.60
2023-04-22T05:21:09.417Z,70.60
2023-04-22T05:23:36.073Z,70.60
2023-04-22T05:26:02.708Z,70.40
2023-04-22T05:28:29.391Z,70.30
2023-04-22T05:30:56.057Z,70.30
2023-04-22T05:33:22.664Z,70.20
2023-04-22T05:35:49.404Z,70.00
2023-04-22T05:38:16.203Z,69.90
2023-04-22T05:40:42.835Z,69.80
2023-04-22T05:43:09.626Z,69.70
2023-04-22T05:45:36.325Z,69.70
2023-04-22T05:48:03.037Z,69.60
2023-04-22T05:50:29.716Z,69.50
2023-04-22T05:53:05.207Z,69.50
2023-04-22T05:55:31.857Z,69.40
2023-04-22T05:57:58.464Z,69.20
2023-04-22T06:00:25.191Z,69.10
2023-04-22T06:02:51.883Z,68.90
2023-04-22T06:05:18.707Z,68.70
2023-04-22T06:07:45.521Z,68.50
2023-04-22T06:10:12.263Z,68.30
2023-04-22T06:12:38.899Z,68.10
2023-04-22T06:15:06.242Z,67.80
2023-04-22T06:17:32.858Z,67.60
2023-04-22T06:19:59.577Z,67.30
2023-04-22T06:22:26.212Z,67.20
2023-04-22T06:24:52.800Z,67.00
2023-04-22T06:27:19.504Z,66.90
2023-04-22T06:29:46.252Z,66.70
2023-04-22T06:32:12.827Z,66.50
2023-04-22T06:34:39.421Z,66.40
2023-04-22T06:37:06.321Z,66.20
2023-04-22T06:39:32.931Z,66.00
2023-04-22T06:41:59.584Z,65.80
2023-04-22T06:44:26.353Z,65.40
2023-04-22T06:46:54.157Z,65.10
2023-04-22T06:49:21.757Z,64.70
2023-04-22T06:51:48.367Z,64.50
2023-04-22T06:54:15.025Z,64.20
2023-04-22T06:56:41.987Z,64.00
2023-04-22T06:59:08.740Z,63.50
2023-04-22T07:01:35.419Z,63.20
2023-04-22T07:04:02.079Z,63.10
2023-04-22T07:06:28.863Z,63.00
2023-04-22T07:08:55.554Z,62.70
2023-04-22T07:11:22.173Z,62.20
2023-04-22T07:13:48.854Z,62.10
2023-04-22T07:16:15.631Z,61.80
2023-04-22T07:18:42.289Z,61.30
2023-04-22T07:21:08.883Z,60.90
2023-04-22T07:23:35.624Z,60.60
2023-04-22T07:26:03.379Z,60.30
2023-04-22T07:28:30.295Z,59.70
2023-04-22T07:30:56.903Z,59.20
2023-04-22T07:33:23.590Z,58.80
2023-04-22T07:35:50.235Z,58.30
2023-04-22T07:38:17.549Z,57.60
2023-04-22T07:40:44.161Z,56.50
2023-04-22T07:43:10.916Z,55.80
2023-04-22T07:45:37.939Z,55.00
2023-04-22T07:48:04.660Z,54.20
2023-04-22T07:50:31.608Z,53.70
2023-04-22T07:52:58.250Z,53.00
2023-04-22T07:55:24.863Z,52.40
2023-04-22T07:57:51.480Z,51.60
2023-04-22T08:00:18.235Z,50.90
2023-04-22T08:02:46.397Z,50.70
2023-04-22T08:05:13.327Z,50.60
2023-04-22T08:07:40.088Z,49.90
2023-04-22T08:10:07.370Z,49.30
2023-04-22T08:12:34.523Z,48.20
2023-04-22T08:15:01.178Z,48.10
2023-04-22T08:17:27.974Z,47.90
2023-04-22T08:19:54.622Z,47.50
2023-04-22T08:22:21.280Z,46.90
2023-04-22T08:24:47.885Z,46.70
2023-04-22T08:27:14.528Z,46.20
2023-04-22T08:29:41.645Z,45.70
2023-04-22T08:32:08.583Z,45.50
2023-04-22T08:34:35.267Z,45.20
2023-04-22T08:37:02.880Z,44.60
2023-04-22T08:39:29.568Z,44.40
2023-04-22T08:41:58.049Z,44.00
2023-04-22T08:44:25.673Z,43.70
2023-04-22T08:46:53.293Z,43.60
2023-04-22T08:49:20.180Z,43.20
2023-04-22T08:51:46.815Z,43.10
2023-04-22T08:54:13.829Z,42.80
2023-04-22T08:56:43.703Z,42.50
2023-04-22T08:59:13.514Z,42.10
2023-04-22T09:01:41.210Z,41.40
2023-04-22T09:04:10.646Z,41.40
2023-04-22T09:06:38.948Z,40.90
2023-04-22T09:09:05.836Z,40.40
2023-04-22T09:11:33.385Z,40.20
2023-04-22T09:14:00.154Z,40.00
2023-04-22T09:16:26.866Z,39.40
2023-04-22T09:18:53.552Z,38.70
2023-04-22T09:21:20.317Z,38.40
2023-04-22T09:23:52.742Z,38.00
2023-04-22T09:26:24.375Z,37.40
2023-04-22T09:28:59.136Z,37.40
2023-04-22T09:31:27.219Z,37.20
2023-04-22T09:34:00.944Z,37.30
2023-04-22T09:36:28.962Z,36.70
2023-04-22T09:39:10.192Z,37.10
2023-04-22T09:41:41.077Z,36.90
2023-04-22T09:44:15.799Z,36.80
2023-04-22T09:46:44.208Z,36.30
2023-04-22T09:49:11.207Z,36.30
2023-04-22T09:51:42.346Z,36.10
2023-04-22T09:54:11.177Z,35.80
2023-04-22T09:56:45.652Z,35.90
2023-04-22T09:59:12.584Z,35.60
2023-04-22T10:01:41.339Z,35.90
2023-04-22T10:04:09.961Z,35.80
2023-04-22T10:06:37.669Z,35.50
2023-04-22T10:09:05.478Z,35.40
2023-04-22T10:11:34.208Z,35.90
2023-04-22T10:14:01.152Z,35.50
2023-04-22T10:16:32.032Z,35.50
2023-04-22T10:19:00.834Z,35.40
2023-04-22T10:21:29.649Z,35.60
2023-04-22T10:23:59.302Z,35.60
2023-04-22T10:26:45.667Z,35.00
2023-04-22T10:29:20.630Z,35.30
2023-04-22T10:32:03.467Z,34.80
2023-04-22T10:34:34.125Z,34.60
2023-04-22T10:37:01.642Z,34.50
2023-04-22T10:39:29.380Z,34.30
2023-04-22T10:42:07.000Z,34.30
2023-04-22T10:44:53.630Z,34.00
2023-04-22T10:47:38.104Z,34.50
2023-04-22T10:50:28.749Z,34.20
2023-04-22T10:53:03.241Z,34.70
2023-04-22T10:55:49.700Z,34.50
2023-04-22T10:58:24.586Z,34.80
2023-04-22T11:00:59.716Z,34.40
2023-04-22T11:03:28.914Z,34.00
2023-04-22T11:06:22.393Z,34.30
2023-04-22T11:08:50.071Z,34.40
2023-04-22T11:11:19.916Z,34.00
2023-04-22T11:13:50.304Z,33.60
2023-04-22T11:16:18.160Z,33.40
2023-04-22T11:18:47.819Z,33.60
2023-04-22T11:21:14.830Z,33.10
2023-04-22T11:23:53.026Z,32.80
2023-04-22T11:26:34.133Z,32.70
2023-04-22T11:29:00.785Z,32.80
2023-04-22T11:31:27.516Z,32.60
2023-04-22T11:33:58.326Z,32.60
2023-04-22T11:36:25.111Z,32.50
2023-04-22T11:38:56.376Z,32.40
2023-04-22T11:41:26.050Z,32.00
2023-04-22T11:43:54.759Z,31.70
2023-04-22T11:46:31.792Z,31.90
2023-04-22T11:49:15.425Z,32.00
2023-04-22T11:51:56.665Z,31.90
2023-04-22T11:54:36.947Z,31.60
2023-04-22T11:57:09.341Z,31.60
2023-04-22T11:59:36.096Z,31.50
2023-04-22T12:02:06.677Z,32.60
2023-04-22T12:04:40.496Z,31.90
2023-04-22T12:07:07.881Z,31.80
2023-04-22T12:09:34.681Z,31.50
2023-04-22T12:12:04.239Z,31.40
2023-04-22T12:14:35.240Z,31.20
2023-04-22T12:17:05.849Z,30.90
2023-04-22T12:19:32.696Z,31.30
2023-04-22T12:21:59.330Z,31.60
2023-04-22T12:24:29.943Z,31.30
2023-04-22T12:26:56.951Z,31.20
2023-04-22T12:29:30.366Z,31.50
2023-04-22T12:31:57.008Z,31.60
2023-04-22T12:34:23.608Z,31.90
2023-04-22T12:36:50.499Z,31.50
2023-04-22T12:39:17.155Z,31.10
2023-04-22T12:41:43.792Z,31.10
2023-04-22T12:44:10.651Z,31.20
2023-04-22T12:46:37.250Z,31.20
2023-04-22T12:49:04.245Z,31.30
2023-04-22T12:51:30.874Z,31.00
2023-04-22T12:53:59.262Z,31.00
2023-04-22T12:56:26.476Z,30.90
2023-04-22T12:58:53.048Z,30.40
2023-04-22T13:01:19.702Z,30.10
2023-04-22T13:03:46.863Z,30.50
2023-04-22T13:06:13.578Z,30.40
2023-04-22T13:08:41.396Z,30.40
2023-04-22T13:11:08.008Z,30.40
2023-04-22T13:13:34.592Z,30.50
2023-04-22T13:16:01.983Z,30.10
2023-04-22T13:18:28.781Z,30.20
2023-04-22T13:20:58.590Z,30.20
2023-04-22T13:23:25.948Z,30.10
2023-04-22T13:25:53.795Z,30.30
2023-04-22T13:28:20.479Z,30.30
2023-04-22T13:30:47.147Z,30.30
2023-04-22T13:33:13.782Z,30.20
2023-04-22T13:35:40.500Z,30.30
2023-04-22T13:38:07.283Z,30.50
2023-04-22T13:40:33.989Z,30.20
2023-04-22T13:43:00.678Z,30.40
2023-04-22T13:45:27.369Z,30.60
2023-04-22T13:47:54.540Z,30.60
2023-04-22T13:50:21.348Z,31.00
2023-04-22T13:52:47.963Z,31.50
2023-04-22T13:55:15.081Z,31.60
2023-04-22T13:57:41.748Z,31.80
2023-04-22T14:00:09.552Z,32.00
2023-04-22T14:02:36.431Z,32.00
2023-04-22T14:05:03.937Z,31.90
2023-04-22T14:07:30.519Z,31.70
2023-04-22T14:09:57.165Z,31.80
2023-04-22T14:12:23.781Z,31.70
2023-04-22T14:14:50.467Z,32.00
2023-04-22T14:17:17.311Z,32.30
2023-04-22T14:19:44.874Z,32.30
2023-04-22T14:22:11.514Z,32.40
2023-04-22T14:24:38.145Z,32.50
2023-04-22T14:27:05.165Z,32.50
2023-04-22T14:29:31.913Z,32.50
2023-04-22T14:31:59.431Z,32.80
2023-04-22T14:34:27.195Z,32.80
2023-04-22T14:36:54.184Z,33.00
2023-04-22T14:39:21.426Z,33.10
2023-04-22T14:41:48.240Z,33.20
2023-04-22T14:44:14.891Z,33.20
2023-04-22T14:46:41.636Z,33.20
2023-04-22T14:49:08.285Z,33.20
2023-04-22T14:51:36.427Z,33.40
2023-04-22T14:54:03.509Z,33.70
2023-04-22T14:56:30.444Z,33.80
2023-04-22T14:58:57.202Z,34.00
2023-04-22T15:01:23.893Z,34.10
2023-04-22T15:03:52.117Z,34.20
2023-04-22T15:06:18.926Z,34.40
2023-04-22T15:08:45.758Z,34.30
2023-04-22T15:11:12.377Z,34.30
2023-04-22T15:13:39.085Z,34.30
2023-04-22T15:16:05.886Z,34.60
2023-04-22T15:18:32.588Z,34.80
2023-04-22T15:20:59.234Z,35.00
2023-04-22T15:23:25.960Z,35.00
2023-04-22T15:25:52.604Z,35.10
2023-04-22T15:28:19.205Z,35.10
2023-04-22T15:30:45.954Z,35.00
2023-04-22T15:33:12.679Z,35.20
2023-04-22T15:35:40.217Z,34.90
2023-04-22T15:38:07.140Z,34.70
2023-04-22T15:40:33.753Z,34.80
2023-04-22T15:43:00.482Z,34.80
2023-04-22T15:45:27.214Z,35.00
2023-04-22T15:47:55.392Z,35.10
2023-04-22T15:50:23.482Z,35.30
2023-04-22T15:52:50.327Z,35.50
2023-04-22T15:55:16.958Z,35.90
2023-04-22T15:57:43.568Z,36.00
2023-04-22T16:00:13.374Z,36.20
2023-04-22T16:02:41.993Z,36.40
2023-04-22T16:05:10.282Z,36.70
2023-04-22T16:07:36.914Z,37.00
2023-04-22T16:10:03.938Z,37.20
2023-04-22T16:12:33.421Z,37.20
2023-04-22T16:15:00.781Z,37.40
2023-04-22T16:17:27.589Z,37.70
2023-04-22T16:19:55.084Z,37.90
2023-04-22T16:22:21.698Z,38.10
2023-04-22T16:24:48.402Z,38.00
2023-04-22T16:27:16.804Z,38.30
2023-04-22T16:29:44.043Z,38.60
2023-04-22T16:32:11.203Z,38.60
2023-04-22T16:34:38.367Z,38.90
2023-04-22T16:37:05.555Z,39.00
2023-04-22T16:39:32.339Z,39.10
2023-04-22T16:41:59.187Z,39.40
2023-04-22T16:44:25.971Z,39.60
2023-04-22T16:46:52.693Z,39.80
2023-04-22T16:49:19.614Z,39.70
2023-04-22T16:51:46.329Z,39.70
2023-04-22T16:54:13.080Z,40.10
2023-04-22T16:56:39.800Z,40.30
2023-04-22T16:59:06.409Z,40.30
2023-04-22T17:01:33.170Z,40.60
2023-04-22T17:04:00.090Z,40.90
2023-04-22T17:06:27.934Z,40.90
2023-04-22T17:08:54.818Z,40.90
2023-04-22T17:11:21.962Z,41.00
2023-04-22T17:13:48.697Z,41.20
2023-04-22T17:16:15.575Z,41.30
2023-04-22T17:18:42.649Z,41.60
2023-04-22T17:21:09.460Z,41.40
2023-04-22T17:23:36.294Z,41.20
2023-04-22T17:26:02.927Z,41.50
2023-04-22T17:28:29.593Z,41.20
2023-04-22T17:30:56.213Z,41.20
2023-04-22T17:33:23.104Z,41.00
2023-04-22T17:35:49.885Z,41.20
2023-04-22T17:38:16.533Z,41.40
2023-04-22T17:40:46.154Z,41.90
2023-04-22T17:43:12.793Z,42.00
2023-04-22T17:45:39.395Z,42.10
2023-04-22T17:48:06.092Z,41.70
2023-04-22T17:50:32.788Z,41.40
2023-04-22T17:52:59.825Z,41.20
2023-04-22T17:55:26.464Z,40.80
2023-04-22T17:57:53.055Z,40.80
2023-04-22T18:00:19.909Z,41.10
2023-04-22T18:02:47.022Z,41.40
2023-04-22T18:05:14.236Z,42.10
2023-04-22T18:07:40.885Z,42.30
2023-04-22T18:10:08.350Z,42.70
2023-04-22T18:12:35.435Z,43.70
2023-04-22T18:15:02.147Z,44.30
2023-04-22T18:17:28.826Z,44.90
2023-04-22T18:20:09.553Z,45.10
2023-04-22T18:22:41.816Z,45.40
2023-04-22T18:25:09.411Z,45.70
2023-04-22T18:27:36.559Z,45.90
2023-04-22T18:30:03.666Z,46.30
2023-04-22T18:32:30.383Z,46.70
2023-04-22T18:34:57.248Z,47.00
2023-04-22T18:37:24.642Z,47.00
2023-04-22T18:39:51.314Z,47.10
2023-04-22T18:42:18.213Z,47.30
2023-04-22T18:44:44.888Z,47.40
2023-04-22T18:47:11.616Z,47.80
2023-04-22T18:49:38.237Z,47.90
2023-04-22T18:52:04.897Z,48.00
2023-04-22T18:54:31.579Z,48.10
2023-04-22T18:56:58.271Z,48.10
2023-04-22T18:59:25.040Z,48.00
2023-04-22T19:01:51.893Z,48.20
2023-04-22T19:04:18.685Z,48.60
2023-04-22T19:06:45.541Z,48.80
2023-04-22T19:09:12.381Z,48.90
2023-04-22T19:11:39.121Z,49.00
2023-04-22T19:14:05.872Z,49.30
2023-04-22T19:16:32.628Z,49.70
2023-04-22T19:18:59.238Z,50.10
2023-04-22T19:21:27.000Z,50.40
2023-04-22T19:23:54.070Z,50.80
2023-04-22T19:26:21.890Z,50.90
2023-04-22T19:28:49.040Z,51.20
2023-04-22T19:31:17.213Z,51.40
2023-04-22T19:33:44.828Z,51.70
2023-04-22T19:36:11.543Z,52.10
2023-04-22T19:38:38.198Z,52.30
2023-04-22T19:41:05.421Z,52.50
2023-04-22T19:43:32.117Z,52.80
2023-04-22T19:45:58.769Z,53.00
2023-04-22T19:48:25.836Z,53.30
2023-04-22T19:50:52.622Z,53.60
2023-04-22T19:53:19.872Z,53.80
2023-04-22T19:55:46.847Z,54.00
2023-04-22T19:58:14.222Z,54.20
2023-04-22T20:00:42.771Z,54.40
2023-04-22T20:03:10.246Z,54.60
2023-04-22T20:05:37.554Z,54.70
2023-04-22T20:08:07.636Z,54.80
2023-04-22T20:10:34.619Z,54.70
2023-04-22T20:13:03.494Z,54.60
2023-04-22T20:15:30.470Z,54.70
2023-04-22T20:17:57.529Z,54.60
2023-04-22T20:20:24.352Z,54.80
2023-04-22T20:22:53.514Z,54.50
2023-04-22T20:25:20.480Z,54.40
2023-04-22T20:27:47.918Z,53.80
2023-04-22T20:30:14.804Z,53.10
2023-04-22T20:32:42.287Z,52.50
2023-04-22T20:35:16.057Z,52.10
2023-04-22T20:37:44.395Z,51.70
2023-04-22T20:40:11.707Z,51.20
2023-04-22T20:42:38.404Z,51.00
2023-04-22T20:45:05.906Z,51.00
2023-04-22T20:47:32.936Z,50.90
2023-04-22T20:49:59.681Z,50.90
2023-04-22T20:52:26.586Z,50.90
2023-04-22T20:54:56.541Z,51.00
2023-04-22T20:57:23.707Z,51.00
2023-04-22T20:59:50.386Z,51.20
2023-04-22T21:02:18.175Z,51.30
2023-04-22T21:04:45.369Z,51.50
2023-04-22T21:07:14.096Z,51.70
2023-04-22T21:09:41.458Z,51.80
2023-04-22T21:12:10.352Z,51.90
2023-04-22T21:14:40.867Z,52.10
2023-04-22T21:17:20.532Z,52.20
2023-04-22T21:19:49.672Z,52.70
2023-04-22T21:22:21.430Z,52.70
2023-04-22T21:24:49.615Z,52.90
2023-04-22T21:27:21.171Z,53.00
2023-04-22T21:29:48.573Z,53.10
2023-04-22T21:32:15.872Z,53.20
2023-04-22T21:34:43.130Z,53.40
2023-04-22T21:37:10.036Z,53.50
2023-04-22T21:39:36.992Z,53.60
2023-04-22T21:42:07.636Z,53.70
2023-04-22T21:44:36.202Z,53.80
2023-04-22T21:47:03.216Z,53.90
2023-04-22T21:49:29.886Z,54.00
2023-04-22T21:51:56.582Z,54.00
2023-04-22T21:54:23.224Z,54.20
2023-04-22T21:56:50.834Z,54.40
2023-04-22T21:59:17.647Z,54.60
2023-04-22T22:01:44.342Z,54.60
2023-04-22T22:04:13.956Z,54.70
2023-04-22T22:06:42.367Z,54.80
2023-04-22T22:09:09.170Z,54.80
2023-04-22T22:11:36.033Z,55.00
2023-04-22T22:14:02.995Z,55.00
2023-04-22T22:16:30.891Z,55.10
2023-04-22T22:18:58.342Z,55.20
2023-04-22T22:21:25.121Z,55.30
2023-04-22T22:23:51.976Z,55.50
2023-04-22T22:26:19.007Z,55.50
2023-04-22T22:28:45.640Z,55.80
2023-04-22T22:31:12.346Z,56.00
2023-04-22T22:33:39.022Z,56.00
2023-04-22T22:36:06.044Z,56.20
2023-04-22T22:38:32.648Z,56.40
2023-04-22T22:40:59.238Z,56.60
2023-04-22T22:43:25.877Z,56.70
2023-04-22T22:45:52.930Z,57.00
2023-04-22T22:48:19.670Z,57.10
2023-04-22T22:50:49.885Z,57.20
2023-04-22T22:53:16.514Z,57.40
2023-04-22T22:55:43.145Z,57.40
2023-04-22T22:58:09.768Z,57.60
2023-04-22T23:00:36.849Z,57.60
2023-04-22T23:03:04.258Z,57.70
2023-04-22T23:05:31.342Z,57.80
2023-04-22T23:07:57.971Z,57.90
2023-04-22T23:10:24.583Z,58.00
2023-04-22T23:12:51.223Z,58.10
2023-04-22T23:15:17.823Z,58.20
2023-04-22T23:17:44.603Z,58.30
2023-04-22T23:20:12.012Z,58.40
2023-04-22T23:22:41.870Z,58.60
2023-04-22T23:25:09.446Z,58.70
2023-04-22T23:27:36.437Z,58.80
2023-04-22T23:30:04.624Z,58.90
2023-04-22T23:32:33.028Z,58.90
2023-04-22T23:35:01.634Z,59.00
2023-04-22T23:37:29.367Z,59.10
2023-04-22T23:39:56.066Z,59.20
2023-04-22T23:42:22.776Z,59.20
2023-04-22T23:44:49.620Z,59.30
2023-04-22T23:47:16.421Z,59.50
2023-04-22T23:49:43.183Z,59.60
2023-04-22T23:52:12.718Z,59.80
2023-04-22T23:54:40.467Z,59.90
2023-04-22T23:57:07.691Z,60.00
2023-04-22T23:59:34.630Z,60.10
